Terminal Aerodrome Forecast
Issued by NWS

Home | Current Version | Previous Version | Text Only | Print | Product List | Glossary On
Versions: 1 2 3 4 5 6 7 8 9 10 11 12 13 14 15 16 17
000
FTUS43 KEAX 032328
TAFSTJ
TAF
KSTJ 032328Z 0400/0424 11004KT P6SM VCSH BKN080 OVC090
     FM040400 14007KT 4SM -RA OVC015
     FM040900 18005KT 3SM -RA OVC003
     FM041400 23005KT P6SM OVC008
     FM041700 26007KT P6SM SCT060=

USA.gov is the U.S. government's official web portal to all federal, state and local government web resources and services.